createdAt,value
2018-07-14T00:01:21.312Z,3.22
2018-07-14T00:03:49.728Z,2.58
2018-07-14T00:06:18.169Z,3.02
2018-07-14T00:08:46.637Z,3.47
2018-07-14T00:11:15.121Z,3.02
2018-07-14T00:13:43.552Z,3.35
2018-07-14T00:16:11.985Z,3.35
2018-07-14T00:18:40.409Z,3.30
2018-07-14T00:21:08.908Z,2.70
2018-07-14T00:23:37.368Z,3.25
2018-07-14T00:26:05.607Z,3.40
2018-07-14T00:28:34.536Z,3.33
2018-07-14T00:31:03.012Z,3.02
2018-07-14T00:33:31.603Z,3.62
2018-07-14T00:36:00.044Z,3.47
2018-07-14T00:38:28.779Z,3.67
2018-07-14T00:40:57.221Z,3.08
2018-07-14T00:43:25.658Z,3.37
2018-07-14T00:45:54.081Z,3.67
2018-07-14T00:48:22.601Z,3.25
2018-07-14T00:50:51.045Z,3.10
2018-07-14T00:53:19.455Z,3.47
2018-07-14T00:55:47.908Z,3.42
2018-07-14T00:58:16.341Z,3.00
2018-07-14T01:00:44.773Z,3.08
2018-07-14T01:03:13.220Z,3.00
2018-07-14T01:05:41.334Z,3.33
2018-07-14T01:08:09.482Z,3.33
2018-07-14T01:10:37.914Z,3.15
2018-07-14T01:13:06.376Z,3.37
2018-07-14T01:15:34.860Z,3.40
2018-07-14T01:18:03.377Z,3.65
2018-07-14T01:20:31.804Z,3.52
2018-07-14T01:23:00.272Z,3.37
2018-07-14T01:25:28.693Z,3.33
2018-07-14T01:27:57.176Z,4.15
2018-07-14T01:30:25.612Z,3.87
2018-07-14T01:32:54.074Z,3.58
2018-07-14T01:35:22.517Z,6.78
2018-07-14T01:37:50.921Z,3.15
2018-07-14T01:40:19.344Z,3.40
2018-07-14T01:42:47.781Z,2.90
2018-07-14T01:45:16.216Z,3.50
2018-07-14T01:47:44.598Z,3.52
2018-07-14T01:50:13.058Z,3.85
2018-07-14T01:52:41.470Z,3.10
2018-07-14T01:55:10.158Z,2.72
2018-07-14T01:57:38.573Z,3.15
2018-07-14T02:00:07.011Z,3.12
2018-07-14T02:02:35.414Z,2.70
2018-07-14T02:05:03.863Z,2.80
2018-07-14T02:07:32.268Z,2.70
2018-07-14T02:10:00.692Z,2.65
2018-07-14T02:12:29.160Z,2.55
2018-07-14T02:14:57.608Z,2.67
2018-07-14T02:17:26.018Z,2.60
2018-07-14T02:19:54.465Z,2.50
2018-07-14T02:22:22.877Z,2.67
2018-07-14T02:24:51.446Z,1.95
2018-07-14T02:27:19.873Z,3.20
2018-07-14T02:29:48.317Z,2.58
2018-07-14T02:32:16.720Z,2.40
2018-07-14T02:34:45.219Z,2.72
2018-07-14T02:37:13.709Z,2.72
2018-07-14T02:39:42.152Z,2.40
2018-07-14T02:42:10.560Z,2.75
2018-07-14T02:44:39.005Z,2.45
2018-07-14T02:47:07.581Z,2.67
2018-07-14T02:49:36.060Z,2.98
2018-07-14T02:52:04.505Z,2.90
2018-07-14T02:54:32.964Z,2.90
2018-07-14T02:57:01.360Z,2.65
2018-07-14T02:59:29.863Z,2.62
2018-07-14T03:01:58.255Z,3.10
2018-07-14T03:04:26.725Z,2.98
2018-07-14T03:06:55.112Z,2.60
2018-07-14T03:09:23.566Z,2.22
2018-07-14T03:11:52.218Z,2.50
2018-07-14T03:14:20.324Z,2.70
2018-07-14T03:16:48.958Z,2.50
2018-07-14T03:19:17.425Z,2.58
2018-07-14T03:21:45.853Z,2.62
2018-07-14T03:24:14.282Z,2.67
2018-07-14T03:26:42.765Z,2.67
2018-07-14T03:29:11.194Z,2.65
2018-07-14T03:31:39.751Z,2.87
2018-07-14T03:34:08.193Z,2.70
2018-07-14T03:36:36.623Z,2.75
2018-07-14T03:39:05.345Z,3.27
2018-07-14T03:41:33.822Z,2.58
2018-07-14T03:44:02.228Z,2.98
2018-07-14T03:46:30.365Z,2.42
2018-07-14T03:48:58.776Z,2.83
2018-07-14T03:51:27.212Z,2.33
2018-07-14T03:53:55.636Z,2.80
2018-07-14T03:56:24.073Z,2.47
2018-07-14T03:58:52.503Z,2.70
2018-07-14T04:01:20.948Z,2.80
2018-07-14T04:03:49.576Z,2.60
2018-07-14T04:06:18.093Z,3.37
2018-07-14T04:08:46.504Z,3.08
2018-07-14T04:11:14.939Z,2.55
2018-07-14T04:13:43.354Z,2.70
2018-07-14T04:16:11.780Z,2.58
2018-07-14T04:18:40.217Z,2.72
2018-07-14T04:21:08.823Z,2.80
2018-07-14T04:23:37.230Z,3.05
2018-07-14T04:26:05.708Z,3.25
2018-07-14T04:28:34.156Z,2.80
2018-07-14T04:31:02.565Z,3.15
2018-07-14T04:33:31.141Z,2.80
2018-07-14T04:35:59.587Z,2.45
2018-07-14T04:38:28.031Z,2.92
2018-07-14T04:40:56.492Z,3.22
2018-07-14T04:43:24.919Z,3.67
2018-07-14T04:45:53.348Z,3.47
2018-07-14T04:48:21.759Z,2.67
2018-07-14T04:50:50.211Z,3.08
2018-07-14T04:53:18.701Z,4.25
2018-07-14T04:55:47.141Z,3.27
2018-07-14T04:58:15.553Z,3.35
2018-07-14T05:00:44.149Z,4.65
2018-07-14T05:03:12.560Z,3.62
2018-07-14T05:05:40.988Z,3.62
2018-07-14T05:08:09.409Z,4.10
2018-07-14T05:10:37.806Z,3.05
2018-07-14T05:13:06.333Z,4.30
2018-07-14T05:15:34.749Z,3.42
2018-07-14T05:18:03.182Z,2.40
2018-07-14T05:20:31.584Z,2.42
2018-07-14T05:23:00.010Z,3.15
2018-07-14T05:25:28.521Z,2.83
2018-07-14T05:27:57.064Z,2.50
2018-07-14T05:30:25.640Z,2.95
2018-07-14T05:32:54.096Z,2.40
2018-07-14T05:35:22.567Z,2.60
2018-07-14T05:37:51.319Z,2.35
2018-07-14T05:40:19.734Z,2.52
2018-07-14T05:42:48.168Z,2.33
2018-07-14T05:45:16.609Z,2.65
2018-07-14T05:47:45.087Z,2.30
2018-07-14T05:50:13.221Z,2.12
2018-07-14T05:52:41.666Z,2.20
2018-07-14T05:55:10.120Z,2.22
2018-07-14T05:57:38.596Z,2.30
2018-07-14T06:00:08.105Z,2.10
2018-07-14T06:02:36.577Z,1.77
2018-07-14T06:05:05.178Z,2.33
2018-07-14T06:07:34.373Z,2.02
2018-07-14T06:10:02.769Z,2.40
2018-07-14T06:12:31.249Z,2.10
2018-07-14T06:14:59.686Z,1.90
2018-07-14T06:17:28.122Z,1.82
2018-07-14T06:19:56.535Z,1.90
2018-07-14T06:22:24.991Z,1.87
2018-07-14T06:24:53.498Z,1.57
2018-07-14T06:27:21.938Z,2.10
2018-07-14T06:29:50.326Z,1.90
2018-07-14T06:32:18.784Z,1.80
2018-07-14T06:34:47.293Z,2.10
2018-07-14T06:37:15.721Z,2.15
2018-07-14T06:39:44.165Z,1.77
2018-07-14T06:42:12.600Z,2.17
2018-07-14T06:44:41.102Z,2.05
2018-07-14T06:47:09.514Z,2.00
2018-07-14T06:49:37.953Z,2.12
2018-07-14T06:52:06.485Z,1.87
2018-07-14T06:54:34.951Z,2.22
2018-07-14T06:57:03.392Z,1.80
2018-07-14T06:59:31.900Z,1.67
2018-07-14T07:02:00.307Z,2.08
2018-07-14T07:04:28.756Z,1.52
2018-07-14T07:06:57.252Z,1.75
2018-07-14T07:09:25.691Z,1.42
2018-07-14T07:11:54.103Z,1.50
2018-07-14T07:14:22.769Z,1.70
2018-07-14T07:16:51.210Z,1.80
2018-07-14T07:19:19.656Z,1.52
2018-07-14T07:21:48.074Z,1.67
2018-07-14T07:24:16.606Z,1.67
2018-07-14T07:26:45.058Z,1.82
2018-07-14T07:29:13.502Z,1.70
2018-07-14T07:31:41.924Z,1.70
2018-07-14T07:34:10.386Z,1.80
2018-07-14T07:36:38.813Z,1.60
2018-07-14T07:39:07.601Z,1.92
2018-07-14T07:41:36.294Z,1.65
2018-07-14T07:44:04.455Z,1.62
2018-07-14T07:46:32.881Z,1.80
2018-07-14T07:49:01.324Z,1.60
2018-07-14T07:51:29.748Z,1.82
2018-07-14T07:53:58.389Z,1.70
2018-07-14T07:56:26.817Z,1.82
2018-07-14T07:58:55.275Z,1.80
2018-07-14T08:01:23.717Z,1.70
2018-07-14T08:03:52.172Z,1.40
2018-07-14T08:06:20.577Z,1.60
2018-07-14T08:08:49.017Z,1.82
2018-07-14T08:11:17.428Z,1.50
2018-07-14T08:13:45.869Z,1.35
2018-07-14T08:16:14.301Z,1.35
2018-07-14T08:18:42.747Z,1.37
2018-07-14T08:21:11.177Z,1.75
2018-07-14T08:23:39.625Z,1.65
2018-07-14T08:26:08.093Z,1.67
2018-07-14T08:28:36.624Z,1.42
2018-07-14T08:31:05.059Z,1.57
2018-07-14T08:33:33.513Z,1.77
2018-07-14T08:36:01.953Z,1.60
2018-07-14T08:38:30.377Z,1.40
2018-07-14T08:40:58.848Z,2.00
2018-07-14T08:43:27.284Z,1.17
2018-07-14T08:45:55.722Z,1.60
2018-07-14T08:48:24.273Z,1.40
2018-07-14T08:50:52.750Z,1.40
2018-07-14T08:53:21.268Z,1.57
2018-07-14T08:55:49.699Z,1.92
2018-07-14T08:58:18.267Z,1.72
2018-07-14T09:00:46.693Z,2.00
2018-07-14T09:03:15.092Z,1.60
2018-07-14T09:05:43.595Z,1.55
2018-07-14T09:08:12.009Z,1.52
2018-07-14T09:10:40.424Z,1.37
2018-07-14T09:13:08.954Z,1.30
2018-07-14T09:15:37.502Z,1.27
2018-07-14T09:18:06.053Z,1.65
2018-07-14T09:20:34.501Z,1.40
2018-07-14T09:23:02.913Z,1.42
2018-07-14T09:25:31.358Z,1.40
2018-07-14T09:27:59.797Z,1.35
2018-07-14T09:30:28.237Z,1.35
2018-07-14T09:32:56.670Z,1.22
2018-07-14T09:35:25.132Z,1.60
2018-07-14T09:37:53.578Z,1.30
2018-07-14T09:40:22.010Z,1.32
2018-07-14T09:42:50.433Z,1.27
2018-07-14T09:45:18.942Z,1.45
2018-07-14T09:47:47.459Z,1.42
2018-07-14T09:50:15.878Z,1.40
2018-07-14T09:52:44.289Z,1.40
2018-07-14T09:55:12.736Z,1.20
2018-07-14T09:57:41.169Z,1.40
2018-07-14T10:00:14.923Z,1.27
2018-07-14T10:02:43.355Z,1.20
2018-07-14T10:05:11.984Z,1.57
2018-07-14T10:07:40.389Z,1.50
2018-07-14T10:10:08.633Z,1.20
2018-07-14T10:12:37.108Z,1.98
2018-07-14T10:15:05.993Z,1.30
2018-07-14T10:17:34.495Z,1.20
2018-07-14T10:20:03.018Z,1.30
2018-07-14T10:22:31.469Z,1.50
2018-07-14T10:24:59.939Z,1.70
2018-07-14T10:27:28.383Z,1.22
2018-07-14T10:29:56.788Z,1.50
2018-07-14T10:32:25.264Z,1.42
2018-07-14T10:34:53.900Z,1.40
2018-07-14T10:37:22.325Z,1.70
2018-07-14T10:39:50.741Z,2.80
2018-07-14T10:42:19.520Z,7.47
2018-07-14T10:44:47.932Z,16.60
2018-07-14T10:47:16.408Z,5.78
2018-07-14T10:49:44.841Z,1.95
2018-07-14T10:52:13.269Z,1.80
2018-07-14T10:54:41.688Z,18.87
2018-07-14T10:57:10.128Z,4.72
2018-07-14T10:59:38.676Z,2.02
2018-07-14T11:02:07.197Z,1.60
2018-07-14T11:04:35.704Z,2.90
2018-07-14T11:07:04.340Z,1.60
2018-07-14T11:09:32.762Z,1.82
2018-07-14T11:12:01.294Z,1.75
2018-07-14T11:14:29.688Z,1.77
2018-07-14T11:16:58.109Z,1.50
2018-07-14T11:19:26.524Z,1.87
2018-07-14T11:21:55.023Z,2.10
2018-07-14T11:24:23.475Z,1.50
2018-07-14T11:26:51.943Z,1.52
2018-07-14T11:29:20.617Z,1.57
2018-07-14T11:31:49.056Z,1.62
2018-07-14T11:34:17.497Z,1.60
2018-07-14T11:36:46.020Z,1.50
2018-07-14T11:39:14.449Z,1.50
2018-07-14T11:41:42.864Z,1.55
2018-07-14T11:44:11.334Z,1.60
2018-07-14T11:46:39.977Z,1.77
2018-07-14T11:49:08.394Z,1.62
2018-07-14T11:51:36.877Z,1.60
2018-07-14T11:54:05.426Z,1.57
2018-07-14T11:56:33.832Z,1.85
2018-07-14T11:59:02.237Z,1.75
2018-07-14T12:01:30.727Z,2.02
2018-07-14T12:03:59.182Z,2.10
2018-07-14T12:06:27.600Z,2.10
2018-07-14T12:08:56.078Z,2.50
2018-07-14T12:11:24.550Z,2.10
2018-07-14T12:14:05.572Z,2.10
2018-07-14T12:16:34.217Z,3.60
2018-07-14T12:19:02.641Z,2.50
2018-07-14T12:21:31.073Z,2.15
2018-07-14T12:24:00.234Z,3.65
2018-07-14T12:26:28.700Z,2.47
2018-07-14T12:28:57.144Z,4.60
2018-07-14T12:31:25.569Z,2.08
2018-07-14T12:33:54.056Z,1.92
2018-07-14T12:36:22.461Z,2.22
2018-07-14T12:38:50.914Z,2.40
2018-07-14T12:41:19.380Z,2.25
2018-07-14T12:43:47.981Z,2.20
2018-07-14T12:46:16.464Z,2.20
2018-07-14T12:48:45.133Z,2.10
2018-07-14T12:51:13.538Z,2.17
2018-07-14T12:53:42.079Z,1.75
2018-07-14T12:56:10.465Z,2.30
2018-07-14T12:58:39.056Z,1.82
2018-07-14T13:01:07.605Z,2.77
2018-07-14T13:03:36.048Z,2.67
2018-07-14T13:06:04.579Z,2.05
2018-07-14T13:08:33.050Z,2.02
2018-07-14T13:11:01.485Z,1.98
2018-07-14T13:13:29.913Z,1.92
2018-07-14T13:15:58.330Z,1.60
2018-07-14T13:18:26.768Z,1.80
2018-07-14T13:20:55.184Z,1.27
2018-07-14T13:23:23.629Z,1.70
2018-07-14T13:25:52.044Z,1.57
2018-07-14T13:28:21.486Z,1.42
2018-07-14T13:30:49.916Z,1.98
2018-07-14T13:33:18.408Z,1.82
2018-07-14T13:35:46.808Z,2.08
2018-07-14T13:38:15.243Z,2.10
2018-07-14T13:40:43.673Z,1.70
2018-07-14T13:43:12.114Z,1.90
2018-07-14T13:45:40.856Z,1.82
2018-07-14T13:48:09.315Z,1.80
2018-07-14T13:50:37.777Z,1.62
2018-07-14T13:53:06.265Z,1.70
2018-07-14T13:55:34.774Z,1.70
2018-07-14T13:58:03.264Z,1.57
2018-07-14T14:00:31.732Z,1.75
2018-07-14T14:02:59.869Z,1.60
2018-07-14T14:05:28.325Z,1.90
2018-07-14T14:07:56.751Z,1.45
2018-07-14T14:10:25.254Z,1.57
2018-07-14T14:12:53.675Z,1.67
2018-07-14T14:15:22.239Z,1.60
2018-07-14T14:17:50.672Z,1.67
2018-07-14T14:20:19.226Z,1.30
2018-07-14T14:22:47.697Z,1.75
2018-07-14T14:25:16.172Z,1.12
2018-07-14T14:27:44.693Z,1.12
2018-07-14T14:30:13.248Z,1.00
2018-07-14T14:32:41.753Z,1.00
2018-07-14T14:35:10.247Z,1.10
2018-07-14T14:37:38.725Z,1.07
2018-07-14T14:40:07.181Z,1.20
2018-07-14T14:42:35.657Z,1.30
2018-07-14T14:45:04.212Z,1.22
2018-07-14T14:47:32.747Z,1.30
2018-07-14T14:50:01.370Z,1.35
2018-07-14T14:52:29.854Z,1.50
2018-07-14T14:54:58.313Z,1.85
2018-07-14T14:57:26.756Z,1.92
2018-07-14T14:59:55.293Z,1.50
2018-07-14T15:02:23.745Z,1.82
2018-07-14T15:04:52.343Z,1.70
2018-07-14T15:07:20.720Z,1.85
2018-07-14T15:09:49.193Z,1.95
2018-07-14T15:12:17.633Z,1.72
2018-07-14T15:14:46.097Z,1.72
2018-07-14T15:17:14.508Z,2.00
2018-07-14T15:19:42.994Z,1.85
2018-07-14T15:22:11.433Z,1.87
2018-07-14T15:24:40.192Z,2.42
2018-07-14T15:27:08.290Z,1.72
2018-07-14T15:29:36.734Z,1.85
2018-07-14T15:32:05.303Z,2.20
2018-07-14T15:34:33.798Z,2.08
2018-07-14T15:37:02.325Z,2.27
2018-07-14T15:39:30.736Z,2.40
2018-07-14T15:41:59.160Z,2.10
2018-07-14T15:44:27.626Z,2.67
2018-07-14T15:46:56.053Z,2.80
2018-07-14T15:49:24.485Z,3.37
2018-07-14T15:51:52.949Z,3.17
2018-07-14T15:54:21.596Z,3.05
2018-07-14T15:56:50.136Z,2.80
2018-07-14T15:59:18.552Z,3.50
2018-07-14T16:01:46.993Z,3.20
2018-07-14T16:04:15.410Z,2.60
2018-07-14T16:06:43.568Z,1.90
2018-07-14T16:09:11.977Z,1.80
2018-07-14T16:11:40.597Z,1.98
2018-07-14T16:14:09.026Z,2.60
2018-07-14T16:16:37.448Z,2.42
2018-07-14T16:19:05.963Z,2.27
2018-07-14T16:21:34.337Z,2.95
2018-07-14T16:24:45.949Z,2.50
2018-07-14T16:27:14.420Z,2.22
2018-07-14T16:29:42.864Z,2.65
2018-07-14T16:32:11.309Z,2.72
2018-07-14T16:34:39.785Z,2.55
2018-07-14T16:37:08.212Z,3.20
2018-07-14T16:39:36.690Z,3.40
2018-07-14T16:42:05.352Z,3.50
2018-07-14T16:44:33.862Z,3.20
2018-07-14T16:47:02.402Z,3.40
2018-07-14T16:49:30.798Z,3.30
2018-07-14T16:51:59.251Z,3.30
2018-07-14T16:54:27.696Z,4.22
2018-07-14T16:56:56.192Z,3.90
2018-07-14T16:59:24.603Z,4.12
2018-07-14T17:01:53.029Z,5.00
2018-07-14T17:04:21.518Z,4.12
2018-07-14T17:06:49.968Z,3.60
2018-07-14T17:09:18.392Z,3.62
2018-07-14T17:11:46.795Z,3.60
2018-07-14T17:14:15.295Z,3.25
2018-07-14T17:16:43.719Z,2.70
2018-07-14T17:19:12.121Z,2.85
2018-07-14T17:21:40.671Z,3.10
2018-07-14T17:24:09.120Z,3.75
2018-07-14T17:26:37.557Z,3.45
2018-07-14T17:29:05.986Z,3.12
2018-07-14T17:31:34.421Z,3.67
2018-07-14T17:34:03.040Z,3.52
2018-07-14T17:36:31.512Z,2.83
2018-07-14T17:38:59.936Z,2.98
2018-07-14T17:41:28.392Z,3.15
2018-07-14T17:43:56.882Z,3.15
2018-07-14T17:46:25.345Z,3.12
2018-07-14T17:48:53.768Z,3.22
2018-07-14T17:51:22.260Z,3.30
2018-07-14T17:53:50.667Z,3.22
2018-07-14T17:56:19.108Z,3.10
2018-07-14T17:58:47.886Z,3.60
2018-07-14T18:01:16.237Z,3.65
2018-07-14T18:03:44.697Z,3.50
2018-07-14T18:06:13.124Z,3.25
2018-07-14T18:08:41.540Z,2.98
2018-07-14T18:11:09.944Z,2.77
2018-07-14T18:13:38.284Z,2.95
2018-07-14T18:16:06.684Z,3.05
2018-07-14T18:18:35.112Z,3.10
2018-07-14T18:21:03.664Z,3.15
2018-07-14T18:23:32.092Z,3.17
2018-07-14T18:26:00.509Z,3.50
2018-07-14T18:28:28.996Z,2.75
2018-07-14T18:30:57.408Z,2.65
2018-07-14T18:33:25.884Z,2.60
2018-07-14T18:35:54.292Z,2.62
2018-07-14T18:38:22.820Z,3.00
2018-07-14T18:40:51.221Z,3.58
2018-07-14T18:43:19.692Z,2.92
2018-07-14T18:45:48.157Z,2.75
2018-07-14T18:48:16.581Z,2.65
2018-07-14T18:50:45.018Z,2.95
2018-07-14T18:53:13.470Z,2.67
2018-07-14T18:55:41.910Z,2.60
2018-07-14T18:58:10.347Z,2.92
2018-07-14T19:00:38.792Z,2.95
2018-07-14T19:03:07.237Z,2.98
2018-07-14T19:05:35.646Z,2.60
2018-07-14T19:08:04.182Z,3.25
2018-07-14T19:10:32.592Z,2.92
2018-07-14T19:13:01.003Z,3.62
2018-07-14T19:15:29.409Z,3.22
2018-07-14T19:17:57.857Z,3.80
2018-07-14T19:20:26.251Z,3.40
2018-07-14T19:22:54.753Z,3.77
2018-07-14T19:25:23.196Z,3.60
2018-07-14T19:27:51.630Z,3.87
2018-07-14T19:30:20.098Z,3.67
2018-07-14T19:32:48.489Z,3.67
2018-07-14T19:35:16.947Z,3.45
2018-07-14T19:37:45.382Z,3.15
2018-07-14T19:40:13.844Z,4.17
2018-07-14T19:42:42.457Z,4.08
2018-07-14T19:45:10.888Z,3.25
2018-07-14T19:47:39.345Z,3.95
2018-07-14T19:50:07.836Z,4.25
2018-07-14T19:52:36.261Z,4.05
2018-07-14T19:55:04.780Z,3.47
2018-07-14T19:57:33.277Z,3.85
2018-07-14T20:00:01.727Z,6.00
2018-07-14T20:02:30.165Z,4.15
2018-07-14T20:04:58.653Z,4.30
2018-07-14T20:07:27.069Z,4.00
2018-07-14T20:09:55.507Z,3.83
2018-07-14T20:12:23.933Z,4.40
2018-07-14T20:14:52.481Z,4.67
2018-07-14T20:17:20.912Z,4.08
2018-07-14T20:19:49.365Z,4.47
2018-07-14T20:22:18.128Z,5.47
2018-07-14T20:24:46.579Z,5.12
2018-07-14T20:27:15.000Z,5.40
2018-07-14T20:29:43.504Z,4.90
2018-07-14T20:32:11.902Z,4.67
2018-07-14T20:34:40.368Z,5.28
2018-07-14T20:37:08.839Z,4.95
2018-07-14T20:39:37.304Z,5.40
2018-07-14T20:42:05.689Z,5.87
2018-07-14T20:44:34.133Z,6.15
2018-07-14T20:47:02.636Z,6.33
2018-07-14T20:49:31.084Z,7.25
2018-07-14T20:51:59.499Z,6.67
2018-07-14T20:54:28.156Z,7.97
2018-07-14T20:56:56.579Z,6.72
2018-07-14T20:59:25.112Z,4.47
2018-07-14T21:01:53.561Z,4.40
2018-07-14T21:04:22.001Z,4.78
2018-07-14T21:06:50.461Z,4.20
2018-07-14T21:09:18.913Z,4.42
2018-07-14T21:11:47.337Z,4.47
2018-07-14T21:14:15.768Z,5.00
2018-07-14T21:16:44.293Z,5.20
2018-07-14T21:19:12.763Z,4.50
2018-07-14T21:21:41.162Z,4.83
2018-07-14T21:24:09.613Z,5.00
2018-07-14T21:26:38.029Z,4.25
2018-07-14T21:29:06.461Z,3.92
2018-07-14T21:31:34.888Z,4.20
2018-07-14T21:34:03.412Z,4.67
2018-07-14T21:36:31.858Z,4.95
2018-07-14T21:39:00.307Z,4.72
2018-07-14T21:41:28.755Z,6.08
2018-07-14T21:43:57.167Z,7.15
2018-07-14T21:46:25.671Z,7.50
2018-07-14T21:48:54.072Z,6.28
2018-07-14T21:51:22.538Z,6.03
2018-07-14T21:53:51.033Z,6.37
2018-07-14T21:56:19.485Z,4.95
2018-07-14T21:58:47.997Z,4.45
2018-07-14T22:01:21.773Z,5.08
2018-07-14T22:03:50.201Z,5.15
2018-07-14T22:06:18.644Z,4.67
2018-07-14T22:08:47.060Z,4.72
2018-07-14T22:11:15.517Z,5.47
2018-07-14T22:13:44.097Z,4.67
2018-07-14T22:16:12.541Z,5.78
2018-07-14T22:18:40.959Z,5.58
2018-07-14T22:21:09.408Z,5.20
2018-07-14T22:23:37.847Z,5.08
2018-07-14T22:26:06.321Z,5.12
2018-07-14T22:28:34.765Z,5.40
2018-07-14T22:31:03.476Z,5.12
2018-07-14T22:33:31.961Z,4.33
2018-07-14T22:36:00.382Z,4.28
2018-07-14T22:38:28.796Z,4.33
2018-07-14T22:40:57.234Z,4.40
2018-07-14T22:43:25.640Z,4.70
2018-07-14T22:45:54.056Z,4.70
2018-07-14T22:48:22.457Z,5.15
2018-07-14T22:50:50.885Z,4.85
2018-07-14T22:53:19.338Z,4.83
2018-07-14T22:55:47.789Z,5.20
2018-07-14T22:58:16.202Z,4.58
2018-07-14T23:00:44.692Z,4.75
2018-07-14T23:03:13.122Z,5.03
2018-07-14T23:05:41.544Z,5.12
2018-07-14T23:08:10.006Z,4.37
2018-07-14T23:10:38.456Z,4.58
2018-07-14T23:13:06.870Z,4.12
2018-07-14T23:15:35.325Z,3.95
2018-07-14T23:18:03.793Z,4.12
2018-07-14T23:20:33.130Z,4.20
2018-07-14T23:23:01.598Z,4.10
2018-07-14T23:25:30.042Z,3.98
2018-07-14T23:27:58.477Z,4.33
2018-07-14T23:30:26.868Z,4.03
2018-07-14T23:32:55.314Z,4.25
2018-07-14T23:35:23.951Z,4.12
2018-07-14T23:37:52.733Z,4.05
2018-07-14T23:40:21.175Z,3.80
2018-07-14T23:42:49.596Z,4.60
2018-07-14T23:45:18.105Z,4.50
2018-07-14T23:47:46.515Z,4.53
2018-07-14T23:50:14.921Z,4.37
2018-07-14T23:52:43.386Z,5.40
2018-07-14T23:55:11.877Z,5.15
2018-07-14T23:57:39.996Z,4.60
